createdAt,value
2023-02-28T00:02:12.891Z,102787.09
2023-02-28T00:04:39.313Z,102782.75
2023-02-28T00:07:05.637Z,102783.69
2023-02-28T00:09:31.951Z,102785.34
2023-02-28T00:11:59.606Z,102780.19
2023-02-28T00:14:25.966Z,102784.47
2023-02-28T00:16:52.312Z,102785.31
2023-02-28T00:19:18.628Z,102789.00
2023-02-28T00:21:44.955Z,102776.84
2023-02-28T00:24:11.281Z,102783.91
2023-02-28T00:26:37.616Z,102776.91
2023-02-28T00:29:05.298Z,102776.91
2023-02-28T00:31:31.614Z,102783.09
2023-02-28T00:33:57.944Z,102785.78
2023-02-28T00:36:24.269Z,102782.41
2023-02-28T00:38:50.562Z,102788.63
2023-02-28T00:41:16.878Z,102791.25
2023-02-28T00:43:43.191Z,102796.41
2023-02-28T00:46:10.908Z,102795.66
2023-02-28T00:48:37.614Z,102795.66
2023-02-28T00:51:04.248Z,102796.66
2023-02-28T00:53:30.597Z,102795.88
2023-02-28T00:55:56.910Z,102800.22
2023-02-28T00:58:23.223Z,102800.19
2023-02-28T01:00:49.598Z,102800.28
2023-02-28T01:03:18.000Z,102805.53
2023-02-28T01:05:44.401Z,102801.22
2023-02-28T01:08:10.739Z,102804.75
2023-02-28T01:10:37.112Z,102807.38
2023-02-28T01:13:03.859Z,102800.53
2023-02-28T01:15:30.259Z,102801.53
2023-02-28T01:17:56.602Z,102797.16
2023-02-28T01:20:24.358Z,102804.13
2023-02-28T01:22:50.745Z,102813.72
2023-02-28T01:25:17.192Z,102809.41
2023-02-28T01:27:43.573Z,102811.28
2023-02-28T01:30:10.563Z,102810.44
2023-02-28T01:32:36.969Z,102813.91
2023-02-28T01:35:03.408Z,102805.28
2023-02-28T01:37:31.406Z,102813.09
2023-02-28T01:39:57.720Z,102802.75
2023-02-28T01:42:24.038Z,102801.78
2023-02-28T01:44:58.458Z,102804.41
2023-02-28T01:47:26.752Z,102804.41
2023-02-28T01:49:53.490Z,102799.19
2023-02-28T01:52:20.032Z,102800.91
2023-02-28T01:54:51.585Z,102791.34
2023-02-28T01:57:19.644Z,102794.88
2023-02-28T01:59:48.463Z,102794.06
2023-02-28T02:02:15.560Z,102796.72
2023-02-28T02:04:44.646Z,102783.72
2023-02-28T02:07:11.713Z,102771.53
2023-02-28T02:09:38.021Z,102769.81
2023-02-28T02:12:13.134Z,102773.31
2023-02-28T02:14:46.339Z,102769.97
2023-02-28T02:17:17.824Z,102769.09
2023-02-28T02:20:01.666Z,102775.25
2023-02-28T02:22:51.885Z,102767.41
2023-02-28T02:25:27.060Z,102765.59
2023-02-28T02:28:08.252Z,102758.59
2023-02-28T02:30:44.420Z,102757.69
2023-02-28T02:33:18.619Z,102757.72
2023-02-28T02:35:50.495Z,102755.09
2023-02-28T02:38:20.917Z,102760.34
2023-02-28T02:40:51.593Z,102772.53
2023-02-28T02:43:20.161Z,102768.16
2023-02-28T02:45:48.992Z,102770.78
2023-02-28T02:48:18.685Z,102749.00
2023-02-28T02:50:47.129Z,102763.78
2023-02-28T02:53:18.554Z,102763.00
2023-02-28T02:55:48.249Z,102761.28
2023-02-28T02:58:16.413Z,102759.59
2023-02-28T03:00:44.572Z,102766.63
2023-02-28T03:03:12.267Z,102771.88
2023-02-28T03:05:42.564Z,102777.97
2023-02-28T03:08:08.876Z,102774.50
2023-02-28T03:10:38.310Z,102768.41
2023-02-28T03:13:23.287Z,102781.44
2023-02-28T03:15:57.426Z,102782.31
2023-02-28T03:18:28.515Z,102773.63
2023-02-28T03:21:00.333Z,102770.09
2023-02-28T03:23:31.051Z,102770.94
2023-02-28T03:26:02.890Z,102771.78
2023-02-28T03:28:32.481Z,102775.16
2023-02-28T03:31:01.842Z,102775.16
2023-02-28T03:33:30.704Z,102773.38
2023-02-28T03:35:59.079Z,102769.88
2023-02-28T03:38:28.023Z,102774.25
2023-02-28T03:40:58.870Z,102772.56
2023-02-28T03:43:29.134Z,102766.50
2023-02-28T03:45:56.648Z,102772.53
2023-02-28T03:48:25.220Z,102770.91
2023-02-28T03:50:54.548Z,102781.34
2023-02-28T03:53:23.686Z,102782.09
2023-02-28T03:55:54.484Z,102778.59
2023-02-28T03:58:23.043Z,102775.94
2023-02-28T04:00:55.821Z,102781.22
2023-02-28T04:03:22.223Z,102766.59
2023-02-28T04:05:51.014Z,102775.34
2023-02-28T04:08:17.348Z,102769.28
2023-02-28T04:10:44.442Z,102775.38
2023-02-28T04:13:10.768Z,102771.09
2023-02-28T04:15:37.100Z,102773.78
2023-02-28T04:18:04.844Z,102772.13
2023-02-28T04:20:31.194Z,102772.09
2023-02-28T04:22:57.510Z,102762.63
2023-02-28T04:25:23.803Z,102761.91
2023-02-28T04:27:50.130Z,102766.22
2023-02-28T04:30:16.802Z,102770.63
2023-02-28T04:32:43.248Z,102764.59
2023-02-28T04:35:12.520Z,102765.44
2023-02-28T04:37:38.892Z,102763.00
2023-02-28T04:40:05.681Z,102770.78
2023-02-28T04:42:32.148Z,102769.81
2023-02-28T04:44:58.470Z,102772.34
2023-02-28T04:47:24.826Z,102776.75
2023-02-28T04:49:51.165Z,102782.84
2023-02-28T04:52:18.878Z,102779.47
2023-02-28T04:54:45.190Z,102785.47
2023-02-28T04:57:11.514Z,102788.13
2023-02-28T04:59:37.850Z,102789.97
2023-02-28T05:02:04.172Z,102788.22
2023-02-28T05:04:30.494Z,102781.28
2023-02-28T05:06:56.801Z,102794.41
2023-02-28T05:09:24.591Z,102786.69
2023-02-28T05:11:50.920Z,102789.34
2023-02-28T05:14:17.210Z,102788.44
2023-02-28T05:16:43.544Z,102793.66
2023-02-28T05:19:10.046Z,102795.41
2023-02-28T05:21:37.491Z,102796.28
2023-02-28T05:24:05.318Z,102803.28
2023-02-28T05:26:35.043Z,102802.47
2023-02-28T05:29:01.367Z,102803.31
2023-02-28T05:31:28.201Z,102800.66
2023-02-28T05:33:54.804Z,102804.13
2023-02-28T05:36:21.376Z,102802.38
2023-02-28T05:38:48.264Z,102811.03
2023-02-28T05:41:14.818Z,102811.88
2023-02-28T05:43:42.487Z,102809.25
2023-02-28T05:46:09.978Z,102819.69
2023-02-28T05:48:37.357Z,102805.88
2023-02-28T05:51:04.437Z,102807.66
2023-02-28T05:53:31.246Z,102811.94
2023-02-28T05:55:57.931Z,102808.44
2023-02-28T05:58:24.747Z,102818.03
2023-02-28T06:00:52.460Z,102815.44
2023-02-28T06:03:18.837Z,102815.47
2023-02-28T06:05:45.212Z,102812.88
2023-02-28T06:08:11.553Z,102812.09
2023-02-28T06:10:37.962Z,102813.06
2023-02-28T06:13:04.922Z,102814.00
2023-02-28T06:15:31.670Z,102817.56
2023-02-28T06:17:59.707Z,102822.84
2023-02-28T06:20:27.141Z,102822.00
2023-02-28T06:22:53.458Z,102822.81
2023-02-28T06:25:19.910Z,102821.09
2023-02-28T06:27:46.208Z,102823.66
2023-02-28T06:30:12.996Z,102818.31
2023-02-28T06:32:39.289Z,102813.06
2023-02-28T06:35:07.413Z,102821.75
2023-02-28T06:37:33.734Z,102831.31
2023-02-28T06:40:00.113Z,102832.19
2023-02-28T06:42:26.530Z,102835.63
2023-02-28T06:44:52.931Z,102827.81
2023-02-28T06:47:19.262Z,102833.81
2023-02-28T06:49:45.570Z,102835.50
2023-02-28T06:52:13.250Z,102834.56
2023-02-28T06:54:39.577Z,102838.00
2023-02-28T06:57:05.880Z,102844.94
2023-02-28T06:59:32.218Z,102838.75
2023-02-28T07:01:58.635Z,102849.91
2023-02-28T07:04:25.014Z,102849.88
2023-02-28T07:06:51.359Z,102847.16
2023-02-28T07:09:19.028Z,102848.81
2023-02-28T07:11:45.380Z,102860.06
2023-02-28T07:14:11.701Z,102863.41
2023-02-28T07:16:38.023Z,102864.16
2023-02-28T07:19:04.343Z,102864.94
2023-02-28T07:21:30.996Z,102865.78
2023-02-28T07:23:57.662Z,102867.34
2023-02-28T07:26:25.369Z,102871.56
2023-02-28T07:28:51.742Z,102871.47
2023-02-28T07:31:18.234Z,102864.38
2023-02-28T07:33:44.855Z,102874.78
2023-02-28T07:36:12.625Z,102872.91
2023-02-28T07:38:38.931Z,102863.19
2023-02-28T07:41:05.442Z,102874.31
2023-02-28T07:43:33.459Z,102871.47
2023-02-28T07:46:02.112Z,102873.00
2023-02-28T07:48:28.441Z,102878.03
2023-02-28T07:50:55.296Z,102866.63
2023-02-28T07:53:21.680Z,102862.91
2023-02-28T07:55:48.012Z,102871.47
2023-02-28T07:58:14.325Z,102872.31
2023-02-28T08:00:42.041Z,102880.81
2023-02-28T08:03:09.612Z,102884.06
2023-02-28T08:05:39.195Z,102878.69
2023-02-28T08:08:05.705Z,102884.66
2023-02-28T08:10:32.041Z,102887.00
2023-02-28T08:12:58.358Z,102884.31
2023-02-28T08:15:24.684Z,102886.84
2023-02-28T08:17:52.411Z,102885.75
2023-02-28T08:20:18.755Z,102887.34
2023-02-28T08:22:46.048Z,102875.16
2023-02-28T08:25:12.483Z,102882.84
2023-02-28T08:27:38.817Z,102877.44
2023-02-28T08:30:05.750Z,102883.34
2023-02-28T08:32:33.160Z,102888.38
2023-02-28T08:35:01.524Z,102882.00
2023-02-28T08:37:27.961Z,102894.09
2023-02-28T08:39:56.402Z,102885.06
2023-02-28T08:42:22.960Z,102887.53
2023-02-28T08:44:49.274Z,102878.66
2023-02-28T08:47:15.612Z,102880.22
2023-02-28T08:49:41.913Z,102870.47
2023-02-28T08:52:09.573Z,102871.78
2023-02-28T08:54:36.236Z,102870.00
2023-02-28T08:57:03.068Z,102878.34
2023-02-28T08:59:29.708Z,102874.78
2023-02-28T09:01:55.997Z,102871.84
2023-02-28T09:04:25.143Z,102865.25
2023-02-28T09:06:51.745Z,102865.09
2023-02-28T09:09:19.440Z,102869.13
2023-02-28T09:11:45.739Z,102867.81
2023-02-28T09:14:12.091Z,102865.03
2023-02-28T09:16:38.754Z,102865.84
2023-02-28T09:19:05.221Z,102869.72
2023-02-28T09:21:31.764Z,102863.94
2023-02-28T09:23:58.219Z,102859.31
2023-02-28T09:26:28.180Z,102865.19
2023-02-28T09:28:58.969Z,102862.03
2023-02-28T09:31:26.313Z,102862.69
2023-02-28T09:33:54.340Z,102865.56
2023-02-28T09:36:21.155Z,102858.56
2023-02-28T09:38:49.714Z,102862.50
2023-02-28T09:41:16.913Z,102862.50
2023-02-28T09:43:46.923Z,102857.41
2023-02-28T09:46:19.031Z,102859.41
2023-02-28T09:48:46.412Z,102860.16
2023-02-28T09:51:16.576Z,102854.25
2023-02-28T09:53:45.733Z,102842.81
2023-02-28T09:56:19.611Z,102843.03
2023-02-28T09:58:48.687Z,102847.31
2023-02-28T10:01:22.791Z,102844.03
2023-02-28T10:03:54.010Z,102840.16
2023-02-28T10:06:21.350Z,102845.50
2023-02-28T10:08:51.884Z,102843.22
2023-02-28T10:11:18.886Z,102842.16
2023-02-28T10:13:50.845Z,102846.75
2023-02-28T10:16:19.916Z,102844.63
2023-02-28T10:18:48.242Z,102844.78
2023-02-28T10:21:18.206Z,102849.19
2023-02-28T10:23:44.596Z,102841.50
2023-02-28T10:26:12.837Z,102842.16
2023-02-28T10:28:39.422Z,102845.97
2023-02-28T10:31:09.533Z,102839.19
2023-02-28T10:33:36.392Z,102833.84
2023-02-28T10:36:03.354Z,102839.50
2023-02-28T10:38:32.972Z,102838.69
2023-02-28T10:41:04.323Z,102837.66
2023-02-28T10:43:30.635Z,102837.13
2023-02-28T10:45:59.260Z,102831.47
2023-02-28T10:48:32.732Z,102834.91
2023-02-28T10:50:59.318Z,102833.63
2023-02-28T10:53:32.810Z,102838.28
2023-02-28T10:56:00.116Z,102835.66
2023-02-28T10:58:27.071Z,102833.69
2023-02-28T11:00:53.543Z,102827.56
2023-02-28T11:03:24.988Z,102819.59
2023-02-28T11:05:52.685Z,102829.91
2023-02-28T11:08:19.354Z,102824.94
2023-02-28T11:10:46.716Z,102823.88
2023-02-28T11:13:17.574Z,102821.00
2023-02-28T11:15:50.224Z,102827.78
2023-02-28T11:18:22.337Z,102816.66
2023-02-28T11:20:50.338Z,102812.31
2023-02-28T11:23:18.819Z,102810.78
2023-02-28T11:25:48.620Z,102813.03
2023-02-28T11:28:25.425Z,102813.41
2023-02-28T11:31:00.968Z,102801.66
2023-02-28T11:33:28.828Z,102814.09
2023-02-28T11:35:57.645Z,102809.63
2023-02-28T11:38:25.521Z,102805.81
2023-02-28T11:40:55.873Z,102806.00
2023-02-28T11:43:29.823Z,102808.91
2023-02-28T11:46:04.476Z,102795.22
2023-02-28T11:48:34.039Z,102801.09
2023-02-28T11:51:05.738Z,102797.13
2023-02-28T11:53:41.742Z,102787.94
2023-02-28T11:56:11.352Z,102786.47
2023-02-28T11:58:42.709Z,102798.78
2023-02-28T12:01:15.940Z,102795.19
2023-02-28T12:03:45.428Z,102789.84
2023-02-28T12:06:16.609Z,102774.13
2023-02-28T12:08:52.346Z,102784.09
2023-02-28T12:11:25.364Z,102787.50
2023-02-28T12:13:57.933Z,102779.03
2023-02-28T12:16:44.344Z,102777.16
2023-02-28T12:19:17.800Z,102773.59
2023-02-28T12:21:52.988Z,102766.97
2023-02-28T12:24:38.834Z,102764.53
2023-02-28T12:27:08.510Z,102771.91
2023-02-28T12:29:39.911Z,102761.59
2023-02-28T12:32:10.700Z,102751.28
2023-02-28T12:34:38.985Z,102755.09
2023-02-28T12:37:08.556Z,102753.91
2023-02-28T12:39:48.567Z,102749.69
2023-02-28T12:42:20.651Z,102746.13
2023-02-28T12:44:50.116Z,102744.34
2023-02-28T12:47:17.506Z,102749.00
2023-02-28T12:49:46.885Z,102744.44
2023-02-28T12:52:15.960Z,102745.03
2023-02-28T12:54:47.860Z,102732.69
2023-02-28T12:57:16.277Z,102732.69
2023-02-28T12:59:46.274Z,102736.81
2023-02-28T13:02:27.177Z,102731.63
2023-02-28T13:04:58.810Z,102738.00
2023-02-28T13:07:41.854Z,102722.16
2023-02-28T13:10:10.070Z,102721.25
2023-02-28T13:12:36.735Z,102714.56
2023-02-28T13:15:05.781Z,102713.59
2023-02-28T13:17:32.794Z,102718.06
2023-02-28T13:19:59.964Z,102716.88
2023-02-28T13:22:38.340Z,102712.78
2023-02-28T13:25:26.080Z,102713.00
2023-02-28T13:27:54.482Z,102699.75
2023-02-28T13:30:39.556Z,102702.25
2023-02-28T13:33:24.358Z,102707.72
2023-02-28T13:36:01.509Z,102704.72
2023-02-28T13:38:35.557Z,102713.41
2023-02-28T13:41:20.516Z,102701.69
2023-02-28T13:44:01.817Z,102696.41
2023-02-28T13:46:28.207Z,102697.41
2023-02-28T13:48:54.554Z,102695.00
2023-02-28T13:51:31.897Z,102700.25
2023-02-28T13:54:05.116Z,102694.06
2023-02-28T13:56:36.608Z,102686.16
2023-02-28T13:59:07.230Z,102685.84
2023-02-28T14:01:40.833Z,102690.41
2023-02-28T14:04:15.891Z,102692.25
2023-02-28T14:06:48.253Z,102682.28
2023-02-28T14:09:20.063Z,102688.72
2023-02-28T14:11:46.864Z,102684.28
2023-02-28T14:14:28.099Z,102675.75
2023-02-28T14:16:56.063Z,102684.44
2023-02-28T14:19:25.160Z,102674.69
2023-02-28T14:22:00.048Z,102678.19
2023-02-28T14:24:50.355Z,102661.19
2023-02-28T14:27:25.556Z,102663.91
2023-02-28T14:30:05.561Z,102674.22
2023-02-28T14:32:35.739Z,102667.91
2023-02-28T14:35:10.627Z,102668.75
2023-02-28T14:37:38.864Z,102676.66
2023-02-28T14:40:05.963Z,102670.75
2023-02-28T14:42:33.054Z,102665.41
2023-02-28T14:44:59.420Z,102667.81
2023-02-28T14:47:28.808Z,102667.72
2023-02-28T14:49:56.553Z,102658.91
2023-02-28T14:52:23.782Z,102660.66
2023-02-28T14:54:53.406Z,102658.97
2023-02-28T14:57:23.665Z,102666.00
2023-02-28T14:59:57.843Z,102654.34
2023-02-28T15:02:25.518Z,102647.44
2023-02-28T15:04:57.171Z,102643.66
2023-02-28T15:07:23.724Z,102652.88
2023-02-28T15:10:06.924Z,102652.41
2023-02-28T15:12:33.284Z,102659.22
2023-02-28T15:14:59.702Z,102660.75
2023-02-28T15:17:26.396Z,102656.81
2023-02-28T15:19:53.543Z,102652.16
2023-02-28T15:22:24.194Z,102651.75
2023-02-28T15:24:52.192Z,102647.38
2023-02-28T15:27:21.762Z,102658.91
2023-02-28T15:29:49.357Z,102657.44
2023-02-28T15:32:24.014Z,102652.16
2023-02-28T15:34:50.364Z,102654.13
2023-02-28T15:37:28.489Z,102658.56
2023-02-28T15:39:55.677Z,102661.09
2023-02-28T15:42:22.864Z,102654.63
2023-02-28T15:44:49.654Z,102643.41
2023-02-28T15:47:18.575Z,102651.34
2023-02-28T15:49:48.064Z,102655.97
2023-02-28T15:52:16.708Z,102643.81
2023-02-28T15:54:45.280Z,102646.28
2023-02-28T15:57:14.314Z,102647.13
2023-02-28T15:59:46.711Z,102643.69
2023-02-28T16:02:15.520Z,102653.19
2023-02-28T16:05:01.626Z,102647.47
2023-02-28T16:07:28.494Z,102658.16
2023-02-28T16:09:56.176Z,102654.84
2023-02-28T16:12:25.660Z,102647.75
2023-02-28T16:14:53.488Z,102650.69
2023-02-28T16:17:21.058Z,102644.34
2023-02-28T16:19:47.394Z,102652.38
2023-02-28T16:22:13.684Z,102651.06
2023-02-28T16:24:39.973Z,102653.81
2023-02-28T16:27:07.877Z,102658.84
2023-02-28T16:29:35.739Z,102657.84
2023-02-28T16:32:04.816Z,102657.31
2023-02-28T16:34:31.258Z,102653.72
2023-02-28T16:36:57.965Z,102664.03
2023-02-28T16:39:24.296Z,102664.34
2023-02-28T16:41:51.377Z,102665.47
2023-02-28T16:44:25.189Z,102672.53
2023-02-28T16:46:51.533Z,102670.75
2023-02-28T16:49:17.854Z,102673.09
2023-02-28T16:51:44.192Z,102676.38
2023-02-28T16:54:10.533Z,102674.78
2023-02-28T16:56:38.424Z,102677.13
2023-02-28T16:59:04.767Z,102682.44
2023-02-28T17:01:32.934Z,102673.16
2023-02-28T17:03:59.604Z,102686.97
2023-02-28T17:06:27.879Z,102691.25
2023-02-28T17:08:54.906Z,102691.28
2023-02-28T17:11:21.891Z,102703.38
2023-02-28T17:13:48.493Z,102705.56
2023-02-28T17:16:18.552Z,102712.28
2023-02-28T17:18:46.388Z,102708.13
2023-02-28T17:21:14.008Z,102713.78
2023-02-28T17:23:40.547Z,102717.47
2023-02-28T17:26:06.908Z,102722.53
2023-02-28T17:28:33.213Z,102728.75
2023-02-28T17:30:59.556Z,102733.41
2023-02-28T17:33:25.897Z,102730.09
2023-02-28T17:35:53.557Z,102732.09
2023-02-28T17:38:20.397Z,102735.09
2023-02-28T17:40:46.777Z,102737.84
2023-02-28T17:43:13.136Z,102738.16
2023-02-28T17:45:39.532Z,102744.66
2023-02-28T17:48:10.106Z,102747.38
2023-02-28T17:50:36.417Z,102749.31
2023-02-28T17:53:04.092Z,102750.34
2023-02-28T17:55:30.402Z,102748.81
2023-02-28T17:57:56.701Z,102752.47
2023-02-28T18:00:23.283Z,102748.97
2023-02-28T18:02:49.622Z,102749.13
2023-02-28T18:05:15.994Z,102753.56
2023-02-28T18:07:42.370Z,102754.66
2023-02-28T18:10:13.547Z,102757.50
2023-02-28T18:12:39.849Z,102752.44
2023-02-28T18:15:06.739Z,102757.81
2023-02-28T18:17:33.059Z,102748.22
2023-02-28T18:19:59.427Z,102752.66
2023-02-28T18:22:25.760Z,102755.34
2023-02-28T18:24:52.068Z,102755.47
2023-02-28T18:27:19.695Z,102755.50
2023-02-28T18:29:46.028Z,102758.38
2023-02-28T18:32:12.324Z,102755.00
2023-02-28T18:34:38.713Z,102747.41
2023-02-28T18:37:05.053Z,102752.94
2023-02-28T18:39:31.362Z,102746.03
2023-02-28T18:41:57.776Z,102750.53
2023-02-28T18:44:25.475Z,102744.44
2023-02-28T18:46:51.883Z,102751.38
2023-02-28T18:49:18.255Z,102750.38
2023-02-28T18:51:44.652Z,102750.25
2023-02-28T18:54:11.116Z,102752.00
2023-02-28T18:56:37.601Z,102746.84
2023-02-28T18:59:03.885Z,102749.72
2023-02-28T19:01:31.514Z,102748.88
2023-02-28T19:03:58.343Z,102747.16
2023-02-28T19:06:24.700Z,102750.72
2023-02-28T19:08:52.881Z,102755.09
2023-02-28T19:11:19.536Z,102751.69
2023-02-28T19:13:46.423Z,102743.81
2023-02-28T19:16:14.609Z,102745.69
2023-02-28T19:18:42.765Z,102751.00
2023-02-28T19:21:09.759Z,102754.53
2023-02-28T19:23:36.760Z,102758.88
2023-02-28T19:26:05.653Z,102769.44
2023-02-28T19:28:31.963Z,102770.41
2023-02-28T19:30:58.347Z,102773.16
2023-02-28T19:33:24.662Z,102770.72
2023-02-28T19:35:52.388Z,102771.78
2023-02-28T19:38:18.761Z,102768.34
2023-02-28T19:40:45.190Z,102774.53
2023-02-28T19:43:11.535Z,102784.34
2023-02-28T19:45:38.578Z,102781.19
2023-02-28T19:48:05.062Z,102783.88
2023-02-28T19:50:31.349Z,102782.22
2023-02-28T19:53:00.478Z,102788.44
2023-02-28T19:55:27.133Z,102777.16
2023-02-28T19:57:53.468Z,102777.19
2023-02-28T20:00:20.084Z,102778.16
2023-02-28T20:02:46.426Z,102779.91
2023-02-28T20:05:12.720Z,102785.16
2023-02-28T20:07:40.339Z,102779.00
2023-02-28T20:10:08.645Z,102779.06
2023-02-28T20:12:34.954Z,102781.63
2023-02-28T20:15:01.425Z,102782.44
2023-02-28T20:17:28.710Z,102782.44
2023-02-28T20:19:55.011Z,102783.25
2023-02-28T20:22:21.407Z,102772.13
2023-02-28T20:24:47.983Z,102777.53
2023-02-28T20:27:15.696Z,102769.00
2023-02-28T20:29:42.017Z,102777.94
2023-02-28T20:32:08.423Z,102778.63
2023-02-28T20:34:34.794Z,102782.91
2023-02-28T20:37:01.201Z,102788.06
2023-02-28T20:39:27.688Z,102776.81
2023-02-28T20:41:54.012Z,102783.13
2023-02-28T20:44:21.698Z,102776.34
2023-02-28T20:46:47.990Z,102780.84
2023-02-28T20:49:14.376Z,102779.13
2023-02-28T20:51:40.672Z,102780.00
2023-02-28T20:54:07.526Z,102771.94
2023-02-28T20:56:33.863Z,102785.03
2023-02-28T20:59:00.216Z,102780.03
2023-02-28T21:01:28.608Z,102780.09
2023-02-28T21:03:55.834Z,102775.06
2023-02-28T21:06:22.877Z,102781.19
2023-02-28T21:08:49.179Z,102778.66
2023-02-28T21:11:16.662Z,102784.03
2023-02-28T21:13:43.947Z,102785.03
2023-02-28T21:16:11.311Z,102785.03
2023-02-28T21:18:39.300Z,102785.03
2023-02-28T21:21:06.553Z,102787.63
2023-02-28T21:23:32.887Z,102783.25
2023-02-28T21:26:02.697Z,102773.75
2023-02-28T21:28:29.094Z,102784.09
2023-02-28T21:31:00.160Z,102779.75
2023-02-28T21:33:26.521Z,102776.50
2023-02-28T21:35:59.577Z,102779.31
2023-02-28T21:38:25.934Z,102783.78
2023-02-28T21:40:52.265Z,102780.34
2023-02-28T21:43:18.637Z,102793.50
2023-02-28T21:45:44.940Z,102792.47
2023-02-28T21:48:11.242Z,102793.28
2023-02-28T21:50:37.559Z,102786.34
2023-02-28T21:53:05.250Z,102785.53
2023-02-28T21:55:34.098Z,102785.56
2023-02-28T21:58:00.434Z,102796.19
2023-02-28T22:00:26.763Z,102788.38
2023-02-28T22:02:53.282Z,102781.47
2023-02-28T22:05:19.631Z,102781.56
2023-02-28T22:07:45.946Z,102782.50
2023-02-28T22:10:13.637Z,102776.44
2023-02-28T22:12:39.950Z,102780.03
2023-02-28T22:15:06.994Z,102777.47
2023-02-28T22:17:33.569Z,102778.47
2023-02-28T22:19:59.922Z,102781.09
2023-02-28T22:22:26.318Z,102788.78
2023-02-28T22:24:52.645Z,102791.56
2023-02-28T22:27:20.313Z,102787.28
2023-02-28T22:29:48.013Z,102789.13
2023-02-28T22:32:15.120Z,102786.56
2023-02-28T22:34:41.969Z,102784.81
2023-02-28T22:37:08.297Z,102786.63
2023-02-28T22:39:34.590Z,102793.50
2023-02-28T22:42:00.879Z,102797.97
2023-02-28T22:44:28.610Z,102790.09
2023-02-28T22:46:54.980Z,102800.59
2023-02-28T22:49:21.306Z,102795.25
2023-02-28T22:51:47.624Z,102793.56
2023-02-28T22:54:13.981Z,102797.72
2023-02-28T22:56:40.366Z,102798.66
2023-02-28T22:59:06.704Z,102797.84
2023-02-28T23:01:34.488Z,102790.03
2023-02-28T23:04:01.042Z,102786.66
2023-02-28T23:06:28.677Z,102781.50
2023-02-28T23:08:56.271Z,102794.63
2023-02-28T23:11:23.617Z,102795.53
2023-02-28T23:13:50.526Z,102800.78
2023-02-28T23:16:16.873Z,102799.78
2023-02-28T23:18:44.580Z,102786.81
2023-02-28T23:21:10.902Z,102794.03
2023-02-28T23:23:37.224Z,102801.13
2023-02-28T23:26:06.360Z,102796.84
2023-02-28T23:28:32.653Z,102798.72
2023-02-28T23:31:00.586Z,102797.00
2023-02-28T23:33:26.916Z,102798.66
2023-02-28T23:35:54.600Z,102793.44
2023-02-28T23:38:20.901Z,102783.84
2023-02-28T23:40:47.203Z,102787.38
2023-02-28T23:43:13.538Z,102784.84
2023-02-28T23:45:39.907Z,102786.72
2023-02-28T23:48:06.453Z,102786.81
2023-02-28T23:50:32.756Z,102790.38
2023-02-28T23:53:00.401Z,102796.56
2023-02-28T23:55:26.715Z,102804.53
2023-02-28T23:57:53.001Z,102797.66
